PAGINA EN CONSTRUCCIÓN

DISCULPEN POSIBLES FALLOS



Daganzo more information Daganzo


Meteosat more information blitzortung!


Radar lluvias  rain snow radar


Visita nuestra red de sitios de meteo:

Documentation for the template used

MeteoibericaRed estaciones Meteorologicas



Sin Advertencias climatologicas .En este momento tenemos Nivel Verde.    No hay Alarmas

Informes METAR proximidad

   
LEMD - Madrid/Barajas
Actualización: 26-09-2018 00:30
Parcialmente Nublado  
Parcialmente Nublado  
   Viento: SE 11.1 km/h
Viento: SE 11.1 km/h
Temperatura: 21°C
Punto de rocío: 16°C
Humedad: 73%
Baromètro: 1026 hPa
Nublado: Parcialmente Nublado
Visibilidad: More than 10 km
detalles de la nube: Parcialmente Nublado 2600 ft
LEMD 260030Z 13006KT 100V170 9999 SCT026 21/16 Q1026 WS R18L NOSIG
LEBL - Barcelona/El Prat
Actualización: 26-09-2018 00:30
Parcialmente nublado  
Parcialmente nublado  
   Viento: ENE 35.2 km/h
Viento: ENE 35.2 km/h
Temperatura: 22°C
Punto de rocío: 15°C
Humedad: 65%
Baromètro: 1028 hPa
Nublado: Parcialmente nublado
Visibilidad: More than 10 km
detalles de la nube: Nubes dispersas 1500 ft,
Parcialmente nublado 5600 ft
LEBL 260030Z 06019KT 9999 FEW015 BKN056 22/15 Q1028 NOSIG
LEVC - Valencia
Actualización: 26-09-2018 00:30
Nublado  
Nublado  
   Viento: West 5.6 km/h
Viento: West 5.6 km/h
Temperatura: 22°C
Punto de rocío: 17°C
Humedad: 73%
Baromètro: 1027 hPa
Nublado: Nublado
Visibilidad: More than 10 km
detalles de la nube: Nublado 3000 ft
LEVC 260030Z 27003KT 9999 OVC030 22/17 Q1027 NOSIG
LETO - Madrid/Torrejon
Actualización: 26-09-2018 00:00
Parcialmente Nublado  
Parcialmente Nublado  
   Viento: ESE 7.4 km/h
Viento: ESE 7.4 km/h
Temperatura: 20°C
Punto de rocío: 13°C
Humedad: 64%
Baromètro: 1026 hPa
Nublado: Parcialmente Nublado
Visibilidad: More than 10 km
detalles de la nube: Parcialmente Nublado 2600 ft
LETO 260000Z 12004KT 030V180 9999 SCT026 20/13 Q1026 NOSIG
LEVS - Madrid/Cuatro Vientos
Actualización: 25-09-2018 20:00
NO actual
Despejado  
Despejado  
   Viento: N 5.6 km/h
Viento: N 5.6 km/h
Temperatura: 26°C
Punto de rocío: 10°C
Humedad: 37%
Baromètro: 1023 hPa
Visibilidad: More than 10 km
detalles de la nube: Despejado
LEVS 252000Z 01003KT 330V050 CAVOK 26/10 Q1023
LEGT - Madrid/Getafe
Actualización: 25-09-2018 19:00
NO actual
Despejado  
Despejado  
   Viento: ESE 3.7 km/h
Viento: ESE 3.7 km/h
Temperatura: 28°C
Punto de rocío: 10°C
Humedad: 32%
Baromètro: 1021 hPa
Visibilidad: More than 10 km
detalles de la nube: Despejado
LEGT 251900Z 11002KT CAVOK 28/10 Q1021
LEVD - Valladolid
Actualización: 25-09-2018 19:30
NO actual
Despejado  
Despejado  
   Viento: ENE 14.8 km/h
Viento: ENE 14.8 km/h
Temperatura: 17°C
Punto de rocío: 2°C
Humedad: 37%
Baromètro: 1025 hPa
Visibilidad: More than 10 km
detalles de la nube: Despejado
LEVD 251930Z 06008KT CAVOK 17/02 Q1025
LEZG - Zaragoza
Actualización: 26-09-2018 00:30
Parcialmente Nublado  
Parcialmente Nublado  
   Viento: E 3.7 km/h
Viento: E 3.7 km/h
Temperatura: 17°C
Punto de rocío: 9°C
Humedad: 59%
Baromètro: 1027 hPa
Nublado: Parcialmente Nublado
Visibilidad: More than 10 km
detalles de la nube: Parcialmente Nublado 4000 ft,
Parcialmente Nublado 6000 ft
LEZG 260030Z 08002KT 9999 SCT040 SCT060 17/09 Q1027
LEVT - Vitoria
Actualización: 26-09-2018 00:30
Despejado  
Despejado  
   Viento: calma
Viento: calma
Temperatura: 7°C
Punto de rocío: 6°C
Humedad: 93%
Baromètro: 1027 hPa
Visibilidad: More than 10 km
detalles de la nube: Despejado
LEVT 260030Z 00000KT CAVOK 07/06 Q1027
LELN - Leon/Virgen del Camino
Actualización: 26-09-2018 00:30
Despejado  
Despejado  
   Viento: N 11.1 km/h
Viento: N 11.1 km/h
Temperatura: 10°C
Térmica: 8°C
Punto de rocío: 0°C
Humedad: 50%
Baromètro: 1026 hPa
Nublado: Despejado
Visibilidad: More than 10 km
detalles de la nube: Despejado
LELN 260030Z AUTO 35006KT 9999 NCD 10/00 Q1026
LEPP - Pamplona/Noain
Actualización: 26-09-2018 00:30
Despejado  
Despejado  
   Viento: varía 1.9 km/h
Viento: varía 1.9 km/h
Temperatura: 12°C
Punto de rocío: 8°C
Humedad: 77%
Baromètro: 1028 hPa
Nublado: Despejado
Visibilidad: More than 10 km
detalles de la nube: Despejado
LEPP 260030Z AUTO VRB01KT 9999 NCD 12/08 Q1028
LEBB - Bilbao/Sondica
Actualización: 26-09-2018 00:30
Despejado  
Despejado  
   Viento: varía 3.7 km/h
Viento: varía 3.7 km/h
Temperatura: 11°C
Punto de rocío: 10°C
Humedad: 94%
Baromètro: 1027 hPa
Nublado: Despejado
Visibilidad: More than 10 km
detalles de la nube: Despejado
LEBB 260030Z AUTO VRB02KT 9999 NCD 11/10 Q1027

Guión original por  Saratoga-weather.org Adaptado para la plantilla por  Weerstation Leuven

Usted encontrará nuestra información del tiempo también en:

WeatherCloud

Weather Underground

Iberian Peninsula Weather Network

AWEKAS

Citizen Weather Observer Program (CWOP)